Time;durP1;ratioP1;P1;durP2;ratioP2;P2;SDS_P1;SDS_P2;PMS_P1;PMS_P2;Temp;Humidity;BMP_temperature;BMP_pressure;BME280_temperature;BME280_humidity;BME280_pressure;Samples;Min_cycle;Max_cycle;Signal;HPM_P1;HPM_P2
2021/04/15 19:34:32;;;;;;;5.45;2.58;;;;;;;5.06;44.57;98961.41;5844870;23;20035;-47
2021/04/15 19:36:58;;;;;;;9.77;4.57;;;;;;;5.02;45.32;98967.63;4825837;29;20038;-46
2021/04/15 19:39:23;;;;;;;9.40;4.10;;;;;;;5.09;44.78;98943.09;4786538;29;20105;-44
2021/04/15 19:41:49;;;;;;;5.78;2.50;;;;;;;5.08;45.79;98967.41;4830448;29;20500;-44
2021/04/15 19:44:15;;;;;;;5.20;2.15;;;;;;;4.96;46.00;98963.50;4826192;29;20037;-44
2021/04/15 19:46:40;;;;;;;4.63;2.00;;;;;;;4.94;46.16;98960.91;4843462;29;20036;-45
2021/04/15 19:49:06;;;;;;;6.00;2.35;;;;;;;4.89;46.42;98967.19;4842237;29;20401;-48
2021/04/15 19:51:31;;;;;;;5.57;2.38;;;;;;;4.75;47.16;98963.31;4841725;29;20467;-45
2021/04/15 19:53:56;;;;;;;7.20;2.80;;;;;;;4.85;47.18;98965.56;4843020;29;20050;-44
2021/04/15 19:56:23;;;;;;;7.53;2.65;;;;;;;4.74;47.89;98965.94;4843028;29;20053;-46
2021/04/15 19:58:49;;;;;;;5.35;2.65;;;;;;;4.77;47.64;98965.84;4846938;29;20048;-48
2021/04/15 20:01:16;;;;;;;6.43;2.30;;;;;;;4.59;48.08;98963.84;4839596;29;20172;-50
2021/04/15 20:03:41;;;;;;;5.88;3.10;;;;;;;4.46;48.67;98959.03;4842427;29;20030;-47
2021/04/15 20:06:08;;;;;;;5.35;2.40;;;;;;;4.44;48.96;98968.63;4844032;29;20030;-47
2021/04/15 20:08:36;;;;;;;4.60;2.08;;;;;;;4.50;49.19;98965.81;4842952;29;20026;-45
2021/04/15 20:11:06;;;;;;;5.50;2.20;;;;;;;4.45;49.12;98965.13;4843674;29;20062;-45
2021/04/15 20:13:32;;;;;;;5.00;2.08;;;;;;;4.41;49.23;98966.13;4844089;29;20026;-47
2021/04/15 20:15:57;;;;;;;4.28;1.65;;;;;;;4.46;49.62;98966.81;4843692;29;20132;-43
2021/04/15 20:18:23;;;;;;;5.20;1.85;;;;;;;4.46;49.79;98964.22;4843800;29;20037;-45
2021/04/15 20:20:48;;;;;;;4.30;2.03;;;;;;;4.30;50.71;98968.19;4843493;29;20392;-43
2021/04/15 20:23:14;;;;;;;5.28;2.42;;;;;;;4.26;50.94;98964.84;4843345;29;20072;-44
2021/04/15 20:25:39;;;;;;;5.75;1.80;;;;;;;4.16;51.11;98965.19;4843419;29;20033;-46
2021/04/15 20:28:05;;;;;;;4.68;1.90;;;;;;;4.35;50.77;98963.72;4843259;29;20026;-43
2021/04/15 20:30:32;;;;;;;6.55;2.80;;;;;;;4.28;51.05;98970.00;4842576;29;20049;-47
2021/04/15 20:33:00;;;;;;;7.10;3.10;;;;;;;4.28;50.90;98962.22;4843288;29;20174;-44
2021/04/15 20:35:25;;;;;;;10.02;4.05;;;;;;;4.26;50.85;98957.06;4842893;29;20037;-45
2021/04/15 20:37:51;;;;;;;17.00;8.52;;;;;;;4.08;51.94;98962.81;4838310;29;20023;-44
2021/04/15 20:40:17;;;;;;;9.68;4.40;;;;;;;3.91;52.80;98963.31;4841519;29;20022;-44
2021/04/15 20:42:43;;;;;;;9.40;4.13;;;;;;;4.04;52.32;98964.66;4833741;29;20057;-44
2021/04/15 20:45:09;;;;;;;7.45;3.08;;;;;;;3.93;52.61;98964.13;4824652;29;20041;-45
2021/04/15 20:47:35;;;;;;;59.15;30.73;;;;;;;3.85;53.23;98960.91;4836183;29;20113;-44
2021/04/15 20:50:00;;;;;;;9.07;4.25;;;;;;;4.00;52.48;98959.63;4809378;29;20062;-47
2021/04/15 20:52:26;;;;;;;6.75;2.88;;;;;;;3.95;52.91;98962.31;4823771;29;20478;-45
2021/04/15 20:54:51;;;;;;;4.72;1.92;;;;;;;3.99;52.97;98957.88;4823256;29;20034;-44
2021/04/15 20:57:17;;;;;;;7.13;2.97;;;;;;;3.85;53.38;98958.31;4824234;29;20491;-44
2021/04/15 20:59:43;;;;;;;6.00;2.63;;;;;;;3.80;53.62;98963.63;4823501;29;20493;-44
2021/04/15 21:02:08;;;;;;;6.93;2.83;;;;;;;3.88;53.52;98959.97;4823588;29;20034;-47
2021/04/15 21:04:34;;;;;;;5.03;2.38;;;;;;;3.67;54.08;98958.84;4832690;29;20041;-44
2021/04/15 21:06:59;;;;;;;6.63;2.47;;;;;;;3.72;54.28;98957.84;4842124;29;20030;-45
2021/04/15 21:09:25;;;;;;;5.07;2.38;;;;;;;3.68;54.46;98958.81;4842075;29;20034;-45
2021/04/15 21:11:50;;;;;;;7.78;3.70;;;;;;;3.60;54.43;98959.91;4841950;29;20041;-44
2021/04/15 21:14:16;;;;;;;9.02;3.92;;;;;;;3.45;55.25;98959.47;4838636;29;20457;-45
2021/04/15 21:16:41;;;;;;;7.45;3.28;;;;;;;3.47;55.34;98955.06;4823853;29;20034;-46
2021/04/15 21:19:08;;;;;;;6.25;2.65;;;;;;;3.44;55.70;98955.19;4824033;29;20038;-44
2021/04/15 21:21:34;;;;;;;6.03;2.60;;;;;;;3.33;55.98;98950.25;4823682;29;20414;-44
2021/04/15 21:24:00;;;;;;;6.38;2.40;;;;;;;3.28;56.16;98953.88;4823803;29;20023;-45
2021/04/15 21:26:25;;;;;;;4.57;2.45;;;;;;;3.08;56.40;98952.66;4823727;29;20041;-44
2021/04/15 21:28:50;;;;;;;5.10;2.20;;;;;;;3.15;56.11;98957.69;4825239;29;20022;-44
2021/04/15 21:31:16;;;;;;;5.72;2.30;;;;;;;3.18;56.13;98955.88;4841651;29;20030;-44
2021/04/15 21:33:41;;;;;;;6.00;2.30;;;;;;;3.15;56.45;98957.69;4841236;29;20089;-44
2021/04/15 21:36:07;;;;;;;5.90;2.58;;;;;;;3.11;56.35;98956.94;4841609;29;20037;-47
2021/04/15 21:38:33;;;;;;;7.72;2.40;;;;;;;3.10;56.71;98955.22;4840423;29;20030;-45
2021/04/15 21:41:02;;;;;;;6.00;2.80;;;;;;;2.96;56.79;98950.41;4841584;29;20034;-48
2021/04/15 21:43:27;;;;;;;6.80;2.63;;;;;;;3.05;56.36;98950.16;4829507;29;20057;-47
2021/04/15 21:45:53;;;;;;;6.63;2.80;;;;;;;2.84;57.47;98953.31;4823421;29;20069;-46
2021/04/15 21:48:20;;;;;;;7.35;2.75;;;;;;;2.96;56.98;98947.81;4823494;29;20076;-44
2021/04/15 21:50:46;;;;;;;6.53;2.95;;;;;;;2.88;57.27;98947.16;4823112;29;20099;-44
2021/04/15 21:53:12;;;;;;;6.47;2.90;;;;;;;2.94;57.58;98949.59;4823507;29;20030;-46
2021/04/15 21:55:38;;;;;;;6.03;2.85;;;;;;;2.81;57.82;98958.56;4823266;29;20105;-44
2021/04/15 21:58:15;;;;;;;6.07;2.55;;;;;;;2.73;58.13;98950.13;4834096;29;20443;-45
2021/04/15 22:00:42;;;;;;;6.07;2.60;;;;;;;2.90;58.15;98953.16;4840046;29;20197;-45
2021/04/15 22:03:08;;;;;;;6.50;2.60;;;;;;;2.97;58.10;98959.03;4841412;29;20410;-48
2021/04/15 22:05:34;;;;;;;9.45;3.00;;;;;;;2.91;58.17;98954.00;4841171;29;20036;-46
2021/04/15 22:08:01;;;;;;;7.95;3.00;;;;;;;2.82;58.55;98949.88;4841310;29;20030;-44
2021/04/15 22:10:31;;;;;;;5.80;2.60;;;;;;;2.88;58.60;98947.16;4835298;29;20030;-44
2021/04/15 22:12:56;;;;;;;6.18;2.60;;;;;;;2.96;58.20;98941.75;4823125;29;20045;-46
2021/04/15 22:15:23;;;;;;;7.20;3.13;;;;;;;2.91;58.95;98946.22;4823152;29;20034;-44
2021/04/15 22:17:48;;;;;;;5.88;2.63;;;;;;;2.73;59.46;98944.97;4823099;29;20034;-44
2021/04/15 22:20:18;;;;;;;6.93;2.92;;;;;;;2.90;59.32;98947.97;4822918;29;20030;-45
2021/04/15 22:22:43;;;;;;;5.40;2.60;;;;;;;2.95;59.27;98946.09;4822961;29;20045;-44
2021/04/15 22:25:09;;;;;;;5.57;2.80;;;;;;;2.91;59.18;98944.47;4822929;29;20105;-49
2021/04/15 22:27:34;;;;;;;7.20;2.88;;;;;;;2.83;59.86;98938.66;4822774;29;20033;-44
2021/04/15 22:30:00;;;;;;;6.30;2.97;;;;;;;2.74;60.07;98931.94;4822842;29;20030;-45
2021/04/15 22:32:25;;;;;;;7.05;2.63;;;;;;;2.88;59.97;98939.38;4821779;29;20032;-46
2021/04/15 22:34:51;;;;;;;5.72;2.63;;;;;;;2.82;60.39;98939.53;4822887;29;20062;-45
2021/04/15 22:37:19;;;;;;;6.72;2.80;;;;;;;2.78;60.29;98938.75;4822869;29;20030;-46
2021/04/15 22:39:44;;;;;;;6.38;2.63;;;;;;;2.87;60.66;98944.59;4837570;29;20022;-44
2021/04/15 22:42:10;;;;;;;9.95;3.33;;;;;;;2.81;60.80;98940.41;4841075;29;20041;-45
2021/04/15 22:44:35;;;;;;;7.43;2.83;;;;;;;2.90;60.64;98939.34;4841697;29;20168;-45
2021/04/15 22:47:17;;;;;;;6.85;2.72;;;;;;;2.85;60.95;98937.69;4844759;29;20551;-46
2021/04/15 22:49:42;;;;;;;7.50;3.03;;;;;;;2.76;61.03;98943.13;4844261;29;20407;-44
2021/04/15 22:52:08;;;;;;;8.82;3.67;;;;;;;2.74;61.40;98936.28;4844620;29;20026;-45
2021/04/15 22:54:34;;;;;;;6.53;2.80;;;;;;;2.77;61.16;98936.22;4827663;29;20026;-44
2021/04/15 22:57:00;;;;;;;6.90;3.00;;;;;;;2.73;61.17;98940.63;4844522;29;20033;-45
2021/04/15 22:59:25;;;;;;;7.75;3.08;;;;;;;2.69;61.38;98932.97;4844356;29;20037;-44
2021/04/15 23:01:51;;;;;;;6.97;2.92;;;;;;;2.79;61.34;98935.28;4844226;29;20033;-44
2021/04/15 23:04:16;;;;;;;7.97;3.00;;;;;;;2.75;60.97;98933.69;4844299;29;20030;-46
2021/04/15 23:06:42;;;;;;;7.05;3.30;;;;;;;2.79;61.24;98932.72;4836569;29;20034;-46
2021/04/15 23:09:07;;;;;;;6.65;2.85;;;;;;;2.74;60.98;98938.88;4825807;29;20027;-45
2021/04/15 23:11:32;;;;;;;6.63;2.92;;;;;;;2.71;61.05;98923.41;4825486;29;20037;-44
2021/04/15 23:13:58;;;;;;;7.05;3.00;;;;;;;2.55;61.51;98931.56;4825815;29;20041;-44
2021/04/15 23:16:23;;;;;;;5.70;2.58;;;;;;;2.51;61.88;98935.13;4825540;29;20026;-45
2021/04/15 23:18:49;;;;;;;6.18;2.80;;;;;;;2.57;61.82;98932.38;4825672;29;20091;-44
2021/04/15 23:21:14;;;;;;;6.40;2.85;;;;;;;2.51;62.33;98932.53;4825321;29;20026;-45
2021/04/15 23:23:39;;;;;;;7.25;2.80;;;;;;;2.40;62.60;98933.69;4825710;29;20033;-45
2021/04/15 23:26:05;;;;;;;7.32;2.97;;;;;;;2.27;63.08;98918.44;4825527;29;20478;-44
2021/04/15 23:28:32;;;;;;;7.35;2.88;;;;;;;2.48;62.52;98932.63;4825488;29;20394;-46
2021/04/15 23:30:57;;;;;;;7.80;3.00;;;;;;;2.29;63.30;98927.00;4825388;29;20056;-45
2021/04/15 23:33:23;;;;;;;6.28;3.00;;;;;;;2.37;63.42;98929.41;4830173;29;20482;-45
2021/04/15 23:35:49;;;;;;;6.90;3.03;;;;;;;2.36;63.47;98927.72;4843641;29;20040;-44
2021/04/15 23:38:15;;;;;;;7.20;3.03;;;;;;;2.37;63.33;98926.81;4843752;29;20048;-45
2021/04/15 23:40:42;;;;;;;7.05;2.85;;;;;;;2.48;62.95;98923.97;4843191;29;20037;-46
2021/04/15 23:43:08;;;;;;;6.97;2.90;;;;;;;2.50;63.27;98919.63;4843698;29;20029;-45
2021/04/15 23:45:33;;;;;;;7.40;3.30;;;;;;;2.53;63.32;98910.03;4843705;29;20086;-45
2021/04/15 23:47:59;;;;;;;6.47;2.55;;;;;;;2.69;62.76;98912.25;4843476;29;20037;-46
2021/04/15 23:50:32;;;;;;;7.47;2.95;;;;;;;2.63;62.80;98913.25;4843400;29;20405;-44
2021/04/15 23:52:59;;;;;;;7.50;2.83;;;;;;;2.73;62.37;98906.09;4839952;29;20022;-46
2021/04/15 23:55:24;;;;;;;6.43;2.97;;;;;;;2.61;62.83;98902.94;4824977;29;20026;-47
2021/04/15 23:57:50;;;;;;;7.20;3.28;;;;;;;2.58;63.40;98899.56;4824608;29;20026;-47
